createdAt,value
2022-08-11T00:03:43.194Z,19.91
2022-08-11T00:08:50.489Z,19.92
2022-08-11T00:13:52.342Z,19.97
2022-08-11T00:18:55.879Z,19.87
2022-08-11T00:24:00.618Z,19.86
2022-08-11T00:29:12.418Z,19.89
2022-08-11T00:34:16.102Z,19.90
2022-08-11T00:39:21.417Z,19.95
2022-08-11T00:44:55.585Z,19.84
2022-08-11T00:50:34.738Z,19.74
2022-08-11T00:56:11.433Z,19.81
2022-08-11T01:01:15.755Z,19.84
2022-08-11T01:06:55.157Z,19.83
2022-08-11T01:12:05.428Z,19.73
2022-08-11T01:17:46.494Z,19.68
2022-08-11T01:23:08.198Z,19.67
2022-08-11T01:28:26.173Z,19.54
2022-08-11T01:33:55.616Z,19.44
2022-08-11T01:39:25.300Z,19.43
2022-08-11T01:45:00.656Z,19.51
2022-08-11T01:50:10.971Z,19.43
2022-08-11T01:55:26.720Z,19.22
2022-08-11T02:00:32.898Z,19.25
2022-08-11T02:06:02.710Z,19.15
2022-08-11T02:11:31.119Z,19.07
2022-08-11T02:17:01.728Z,19.12
2022-08-11T02:22:27.211Z,19.09
2022-08-11T02:27:43.368Z,19.04
2022-08-11T02:33:16.442Z,18.98
2022-08-11T02:38:48.799Z,18.83
2022-08-11T02:43:59.600Z,18.82
2022-08-11T02:49:22.971Z,18.80
2022-08-11T02:54:50.507Z,18.64
2022-08-11T02:59:56.463Z,18.59
2022-08-11T03:05:20.153Z,18.71
2022-08-11T03:10:43.133Z,18.63
2022-08-11T03:16:11.458Z,18.48
2022-08-11T03:21:23.639Z,18.39
2022-08-11T03:26:29.572Z,18.47
2022-08-11T03:31:36.803Z,18.44
2022-08-11T03:37:15.753Z,18.40
2022-08-11T03:42:40.805Z,18.43
2022-08-11T03:48:00.413Z,18.40
2022-08-11T03:53:28.017Z,18.32
2022-08-11T03:58:41.953Z,18.39
2022-08-11T04:04:06.417Z,18.35
2022-08-11T04:09:52.326Z,18.31
2022-08-11T04:15:48.092Z,18.32
2022-08-11T04:21:18.114Z,18.32
2022-08-11T04:26:54.971Z,18.30
2022-08-11T04:32:21.366Z,18.32
2022-08-11T04:37:41.792Z,18.22
2022-08-11T04:43:04.638Z,18.24
2022-08-11T04:49:02.249Z,18.18
2022-08-11T04:54:50.470Z,18.23
2022-08-11T05:00:20.030Z,18.18
2022-08-11T05:05:58.724Z,18.30
2022-08-11T05:11:21.897Z,18.37
2022-08-11T05:16:48.271Z,18.28
2022-08-11T05:22:14.097Z,18.43
2022-08-11T05:27:37.778Z,18.49
2022-08-11T05:33:02.262Z,18.73
2022-08-11T05:38:28.042Z,18.95
2022-08-11T05:44:21.114Z,19.09
2022-08-11T05:49:28.879Z,19.29
2022-08-11T05:54:54.478Z,19.34
2022-08-11T06:00:10.350Z,19.40
2022-08-11T06:05:12.986Z,19.62
2022-08-11T06:10:24.161Z,19.78
2022-08-11T06:15:26.462Z,19.92
2022-08-11T06:20:32.775Z,20.06
2022-08-11T06:25:36.233Z,20.24
2022-08-11T06:30:40.429Z,20.44
2022-08-11T06:36:07.593Z,20.81
2022-08-11T06:41:32.656Z,20.93
2022-08-11T06:46:38.956Z,21.04
2022-08-11T06:51:41.727Z,21.17
2022-08-11T07:02:46.361Z,22.74
2022-08-11T07:08:37.283Z,22.44
2022-08-11T07:13:59.116Z,22.30
2022-08-11T07:19:26.675Z,22.35
2022-08-11T07:24:59.256Z,22.37
2022-08-11T07:30:09.769Z,22.49
2022-08-11T07:35:13.654Z,22.62
2022-08-11T07:40:21.726Z,22.56
2022-08-11T07:45:44.117Z,22.66
2022-08-11T07:51:05.359Z,22.89
2022-08-11T07:56:07.859Z,23.16
2022-08-11T08:01:36.685Z,23.37
2022-08-11T08:06:58.310Z,23.64
2022-08-11T08:12:20.674Z,23.83
2022-08-11T08:17:42.111Z,23.93
2022-08-11T08:22:47.950Z,24.04
2022-08-11T08:27:51.065Z,24.16
2022-08-11T08:32:53.591Z,24.25
2022-08-11T08:37:55.512Z,24.27
2022-08-11T08:43:03.264Z,24.21
2022-08-11T08:48:16.778Z,24.28
2022-08-11T08:53:22.880Z,24.34
2022-08-11T08:58:25.858Z,24.35
2022-08-11T09:04:06.605Z,24.63
2022-08-11T09:08:51.917Z,24.68
2022-08-11T09:14:05.701Z,24.99
2022-08-11T09:19:09.099Z,25.10
2022-08-11T09:24:30.554Z,25.23
2022-08-11T09:29:33.068Z,25.24
2022-08-11T09:34:37.075Z,25.38
2022-08-11T09:40:00.286Z,25.54
2022-08-11T09:45:02.256Z,25.64
2022-08-11T09:50:05.117Z,25.69
2022-08-11T09:55:11.220Z,25.84
2022-08-11T10:00:14.072Z,25.79
2022-08-11T10:05:38.045Z,26.12
2022-08-11T10:10:40.951Z,26.62
2022-08-11T10:15:59.698Z,28.16
2022-08-11T10:21:34.551Z,28.82
2022-08-11T10:27:08.504Z,28.84
2022-08-11T10:32:32.607Z,29.02
2022-08-11T10:38:07.441Z,29.12
2022-08-11T10:43:06.819Z,29.38
2022-08-11T10:48:14.901Z,29.36
2022-08-11T10:53:37.947Z,29.19
2022-08-11T10:58:49.625Z,28.30
2022-08-11T11:03:55.255Z,27.94
2022-08-11T11:09:17.316Z,27.85
2022-08-11T11:14:47.830Z,27.96
2022-08-11T11:19:57.937Z,28.12
2022-08-11T11:25:23.390Z,27.86
2022-08-11T11:30:32.864Z,27.91
2022-08-11T11:35:49.500Z,27.73
2022-08-11T11:41:11.418Z,27.70
2022-08-11T11:46:13.945Z,27.87
2022-08-11T11:51:15.843Z,27.90
2022-08-11T11:56:18.577Z,28.09
2022-08-11T12:01:22.232Z,28.07
2022-08-11T12:06:25.472Z,27.98
2022-08-11T12:11:46.854Z,27.84
2022-08-11T12:16:49.188Z,27.82
2022-08-11T12:22:11.249Z,27.97
2022-08-11T12:27:24.137Z,28.01
2022-08-11T12:32:30.842Z,28.02
2022-08-11T12:37:39.165Z,28.20
2022-08-11T12:43:00.237Z,28.04
2022-08-11T12:48:58.828Z,28.12
2022-08-11T12:53:57.184Z,28.03
2022-08-11T12:59:19.067Z,28.01
2022-08-11T13:04:39.608Z,27.99
2022-08-11T13:09:44.230Z,27.94
2022-08-11T13:14:45.961Z,27.99
2022-08-11T13:19:49.589Z,27.85
2022-08-11T13:24:55.169Z,27.96
2022-08-11T13:30:16.023Z,28.04
2022-08-11T13:35:18.327Z,28.08
2022-08-11T13:40:33.281Z,28.05
2022-08-11T13:45:47.579Z,27.90
2022-08-11T13:51:07.922Z,27.82
2022-08-11T13:56:09.618Z,27.87
2022-08-11T14:02:03.351Z,27.83
2022-08-11T14:06:35.560Z,27.78
2022-08-11T14:12:20.467Z,27.78
2022-08-11T14:17:38.424Z,27.77
2022-08-11T14:22:46.468Z,27.82
2022-08-11T14:28:31.146Z,27.76
2022-08-11T14:33:16.516Z,27.73
2022-08-11T14:38:19.923Z,27.68
2022-08-11T14:44:14.217Z,27.60
2022-08-11T14:49:02.070Z,27.50
2022-08-11T14:54:22.870Z,27.42
2022-08-11T14:59:24.843Z,27.38
2022-08-11T15:04:36.083Z,27.32
2022-08-11T15:10:09.839Z,27.28
2022-08-11T15:15:27.211Z,27.31
2022-08-11T15:20:48.553Z,27.26
2022-08-11T15:25:56.789Z,27.26
2022-08-11T15:31:20.570Z,27.27
2022-08-11T15:36:42.271Z,27.23
2022-08-11T15:42:33.537Z,27.22
2022-08-11T15:47:41.362Z,27.16
2022-08-11T15:53:17.920Z,27.08
2022-08-11T15:58:39.008Z,27.06
2022-08-11T16:04:12.584Z,27.01
2022-08-11T16:09:18.528Z,27.00
2022-08-11T16:14:46.062Z,26.95
2022-08-11T16:19:51.596Z,26.96
2022-08-11T16:27:03.084Z,26.92
2022-08-11T16:30:16.214Z,26.88
2022-08-11T16:35:38.772Z,26.90
2022-08-11T16:40:42.581Z,26.85
2022-08-11T16:46:04.970Z,26.86
2022-08-11T16:51:08.165Z,26.86
2022-08-11T16:56:14.254Z,26.87
2022-08-11T17:01:20.310Z,26.85
2022-08-11T17:06:41.538Z,26.87
2022-08-11T17:12:08.925Z,26.83
2022-08-11T17:17:26.218Z,26.80
2022-08-11T17:22:48.836Z,26.74
2022-08-11T17:27:52.005Z,26.66
2022-08-11T17:33:12.158Z,26.58
2022-08-11T17:38:18.797Z,26.48
2022-08-11T17:43:38.825Z,26.42
2022-08-11T17:48:47.881Z,26.35
2022-08-11T17:54:24.088Z,26.23
2022-08-11T17:59:49.133Z,26.13
2022-08-11T18:04:52.648Z,26.01
2022-08-11T18:10:12.790Z,25.90
2022-08-11T18:15:33.135Z,25.78
2022-08-11T18:20:54.960Z,25.69
2022-08-11T18:26:19.486Z,25.62
2022-08-11T18:31:40.813Z,25.53
2022-08-11T18:37:21.716Z,25.44
2022-08-11T18:42:45.345Z,25.41
2022-08-11T18:48:09.327Z,25.32
2022-08-11T18:53:33.461Z,25.23
2022-08-11T18:58:57.795Z,25.11
2022-08-11T19:04:20.630Z,24.99
2022-08-11T19:09:40.798Z,24.83
2022-08-11T19:15:03.055Z,24.77
2022-08-11T19:20:26.679Z,24.71
2022-08-11T19:25:50.616Z,24.64
2022-08-11T19:31:13.485Z,24.57
2022-08-11T19:36:34.570Z,24.46
2022-08-11T19:41:57.928Z,24.43
2022-08-11T19:47:20.273Z,24.33
2022-08-11T19:52:40.885Z,24.31
2022-08-11T19:58:02.493Z,24.24
2022-08-11T20:03:27.092Z,24.22
2022-08-11T20:08:49.464Z,24.07
2022-08-11T20:14:13.790Z,23.96
2022-08-11T20:19:55.972Z,23.95
2022-08-11T20:25:17.502Z,23.87
2022-08-11T20:30:37.878Z,23.81
2022-08-11T20:35:58.168Z,23.74
2022-08-11T20:41:20.490Z,23.68
2022-08-11T20:46:43.901Z,23.62
2022-08-11T20:52:06.243Z,23.56
2022-08-11T20:57:58.683Z,23.51
2022-08-11T21:03:08.174Z,23.51
2022-08-11T21:08:30.128Z,23.43
2022-08-11T21:13:55.653Z,23.34
2022-08-11T21:19:59.752Z,23.24
2022-08-11T21:25:10.197Z,23.17
2022-08-11T21:30:30.628Z,23.15
2022-08-11T21:35:51.951Z,23.09
2022-08-11T21:41:13.158Z,23.05
2022-08-11T21:46:36.482Z,23.01
2022-08-11T21:51:56.718Z,22.97
2022-08-11T21:57:17.892Z,22.94
2022-08-11T22:02:39.011Z,22.83
2022-08-11T22:07:59.139Z,22.81
2022-08-11T22:13:19.495Z,22.81
2022-08-11T22:18:40.770Z,22.80
2022-08-11T22:24:02.784Z,22.69
2022-08-11T22:29:49.906Z,22.63
2022-08-11T22:35:03.549Z,22.55
2022-08-11T22:40:25.459Z,22.50
2022-08-11T22:45:45.269Z,22.43
2022-08-11T22:51:05.675Z,22.40
2022-08-11T22:56:32.810Z,22.40
2022-08-11T23:01:56.261Z,22.41
2022-08-11T23:07:51.406Z,22.33
2022-08-11T23:13:01.265Z,22.31
2022-08-11T23:18:22.994Z,22.29
2022-08-11T23:23:44.900Z,22.23
2022-08-11T23:29:05.189Z,22.21
2022-08-11T23:34:39.419Z,22.12
2022-08-11T23:40:11.135Z,21.97
2022-08-11T23:45:33.127Z,21.96
2022-08-11T23:50:53.995Z,21.89
2022-08-11T23:56:14.318Z,21.73
